Time;durP1;ratioP1;P1;durP2;ratioP2;P2;SDS_P1;SDS_P2;PMS_P1;PMS_P2;Temp;Humidity;BMP_temperature;BMP_pressure;BME280_temperature;BME280_humidity;BME280_pressure;Samples;Min_cycle;Max_cycle;Signal;HPM_P1;HPM_P2
2022/12/28 00:00:28;;;;;;;6.80;3.60;;;4.10;99.90;;;;;;5075622;28;20200;-56
2022/12/28 00:02:56;;;;;;;5.43;3.90;;;4.20;99.90;;;;;;5075477;28;20228;-57
2022/12/28 00:05:23;;;;;;;5.60;3.37;;;4.30;99.90;;;;;;5075300;28;20213;-56
2022/12/28 00:07:49;;;;;;;5.13;3.30;;;4.40;99.90;;;;;;5075245;28;20688;-56
2022/12/28 00:10:16;;;;;;;3.67;2.83;;;4.50;99.90;;;;;;5075197;28;20201;-56
2022/12/28 00:12:43;;;;;;;7.67;3.00;;;4.70;99.90;;;;;;5075211;28;20596;-56
2022/12/28 00:15:11;;;;;;;8.10;3.20;;;4.70;99.90;;;;;;5075504;28;20201;-57
2022/12/28 00:17:38;;;;;;;4.67;2.90;;;4.80;99.90;;;;;;5075463;28;20212;-56
2022/12/28 00:20:06;;;;;;;6.10;2.80;;;4.70;99.90;;;;;;5075239;28;20201;-57
2022/12/28 00:22:32;;;;;;;3.80;2.63;;;4.70;99.90;;;;;;5074959;28;20232;-56
2022/12/28 00:24:59;;;;;;;4.80;3.10;;;4.80;99.90;;;;;;5075097;28;20205;-56
2022/12/28 00:27:26;;;;;;;5.03;3.07;;;4.90;99.90;;;;;;5074813;28;20319;-56
2022/12/28 00:29:53;;;;;;;5.93;2.90;;;5.00;99.90;;;;;;5074775;28;20205;-56
2022/12/28 00:32:21;;;;;;;4.13;2.93;;;5.00;99.90;;;;;;5074595;28;20577;-58
2022/12/28 00:34:47;;;;;;;4.97;3.30;;;5.00;99.90;;;;;;5074832;28;20205;-56
2022/12/28 00:37:14;;;;;;;5.83;2.40;;;5.10;99.90;;;;;;5074814;28;20208;-56
2022/12/28 00:39:41;;;;;;;4.40;2.87;;;5.20;99.90;;;;;;5074790;28;20205;-56
2022/12/28 00:42:08;;;;;;;5.13;2.60;;;5.20;99.90;;;;;;5075029;28;20286;-56
2022/12/28 00:44:35;;;;;;;3.33;2.30;;;5.30;99.90;;;;;;5074268;28;20193;-56
2022/12/28 00:47:02;;;;;;;3.73;2.77;;;5.30;99.90;;;;;;5074676;28;20221;-57
2022/12/28 00:49:30;;;;;;;5.57;2.50;;;5.40;99.90;;;;;;5074350;28;20692;-56
2022/12/28 00:51:57;;;;;;;5.83;2.63;;;5.50;99.90;;;;;;5074717;28;20241;-56
2022/12/28 00:54:23;;;;;;;5.50;2.47;;;5.50;99.90;;;;;;5074540;28;20255;-56
2022/12/28 00:56:50;;;;;;;4.43;2.40;;;5.60;99.90;;;;;;5074743;28;20201;-55
2022/12/28 00:59:17;;;;;;;3.40;2.37;;;5.70;99.90;;;;;;5074407;28;20209;-55
2022/12/28 01:01:44;;;;;;;4.73;2.33;;;5.80;99.90;;;;;;5074474;28;20252;-56
2022/12/28 01:04:10;;;;;;;4.23;1.97;;;5.90;99.90;;;;;;5074852;28;20508;-56
2022/12/28 01:06:38;;;;;;;3.27;2.40;;;5.90;99.90;;;;;;5074152;28;20209;-56
2022/12/28 01:09:05;;;;;;;3.63;2.00;;;5.90;99.90;;;;;;5074534;28;20676;-56
2022/12/28 01:11:32;;;;;;;5.67;2.00;;;5.90;99.90;;;;;;5074112;28;20225;-56
2022/12/28 01:14:01;;;;;;;3.83;2.13;;;5.90;99.90;;;;;;5074340;28;20220;-57
2022/12/28 01:16:30;;;;;;;4.20;1.77;;;5.90;99.90;;;;;;5074250;28;20216;-57
2022/12/28 01:18:59;;;;;;;6.13;1.90;;;5.80;99.90;;;;;;5074083;28;20205;-57
2022/12/28 01:21:28;;;;;;;3.30;2.00;;;5.80;99.90;;;;;;5073667;28;20229;-56
2022/12/28 01:23:59;;;;;;;6.00;1.87;;;5.80;99.90;;;;;;5074211;28;20213;-56
2022/12/28 01:26:27;;;;;;;5.53;2.07;;;5.90;99.90;;;;;;5074025;28;20205;-55
2022/12/28 01:28:54;;;;;;;2.63;1.80;;;6.00;99.90;;;;;;5073786;28;20224;-56
2022/12/28 01:31:21;;;;;;;4.07;1.80;;;6.00;99.90;;;;;;5074014;28;20255;-58
2022/12/28 01:33:49;;;;;;;2.63;1.73;;;6.10;99.90;;;;;;5073825;28;20212;-57
2022/12/28 01:36:17;;;;;;;2.50;1.70;;;6.20;99.90;;;;;;5073596;28;20681;-57
2022/12/28 01:38:45;;;;;;;4.83;1.73;;;6.20;99.90;;;;;;5073881;28;20201;-57
2022/12/28 01:41:16;;;;;;;1.90;1.60;;;6.20;99.90;;;;;;5074144;28;20219;-56
2022/12/28 01:43:45;;;;;;;2.23;1.57;;;6.20;99.90;;;;;;5073959;28;20267;-57
2022/12/28 01:46:15;;;;;;;2.10;1.30;;;6.30;99.90;;;;;;5073747;28;20212;-56
2022/12/28 01:48:47;;;;;;;3.17;1.60;;;6.20;99.90;;;;;;5073420;28;20228;-57
2022/12/28 01:51:14;;;;;;;4.00;1.50;;;6.20;99.90;;;;;;5073286;28;20251;-57
2022/12/28 01:53:41;;;;;;;2.97;1.50;;;6.10;99.90;;;;;;5073677;28;20580;-57
2022/12/28 01:56:08;;;;;;;2.30;1.23;;;6.20;99.90;;;;;;5072598;28;20262;-57
2022/12/28 01:58:36;;;;;;;4.23;1.77;;;6.20;99.90;;;;;;5073562;28;20208;-57
2022/12/28 02:01:03;;;;;;;1.93;1.27;;;6.30;99.90;;;;;;5073032;28;20205;-57
2022/12/28 02:03:32;;;;;;;1.73;1.10;;;6.40;99.90;;;;;;5073566;28;20308;-57
2022/12/28 02:06:03;;;;;;;2.20;1.20;;;6.50;99.90;;;;;;5073094;28;20688;-57
2022/12/28 02:08:40;;;;;;;3.03;1.27;;;6.60;99.90;;;;;;5073340;28;20304;-57
2022/12/28 02:11:08;;;;;;;1.57;1.10;;;6.70;99.90;;;;;;5072918;28;20299;-57
2022/12/28 02:13:36;;;;;;;3.40;1.20;;;6.80;99.90;;;;;;5073475;28;20216;-57
2022/12/28 02:16:04;;;;;;;2.63;1.30;;;6.90;99.90;;;;;;5073534;28;20212;-57
2022/12/28 02:18:32;;;;;;;1.60;1.20;;;7.00;99.90;;;;;;5073576;28;20205;-56
2022/12/28 02:21:22;;;;;;;2.27;1.10;;;7.10;99.90;;;;;;5073163;28;20209;-57
2022/12/28 02:24:15;;;;;;;2.27;1.17;;;7.20;99.90;;;;;;5073305;28;20208;-57
2022/12/28 02:26:53;;;;;;;3.40;1.10;;;7.30;99.90;;;;;;5073307;28;20212;-57
2022/12/28 02:29:37;;;;;;;1.87;1.00;;;7.20;99.90;;;;;;5073440;28;20231;-56
2022/12/28 02:32:17;;;;;;;2.53;1.20;;;7.30;99.90;;;;;;5073356;28;20702;-57
2022/12/28 02:34:51;;;;;;;1.43;1.00;;;7.40;99.90;;;;;;5073392;28;20215;-57
2022/12/28 02:37:22;;;;;;;1.90;1.17;;;7.40;99.90;;;;;;5073444;28;20204;-57
2022/12/28 02:39:53;;;;;;;1.60;1.10;;;7.50;99.90;;;;;;5073349;28;20209;-57
2022/12/28 02:42:23;;;;;;;1.93;1.23;;;7.60;99.90;;;;;;5073721;28;20232;-57
2022/12/28 02:50:21;;;;;;;2.20;1.00;;;7.80;99.90;;;;;;5073668;28;20200;-58
2022/12/28 02:53:25;;;;;;;1.20;0.90;;;7.80;99.90;;;;;;5073727;28;20232;-58
2022/12/28 02:56:06;;;;;;;1.90;1.10;;;7.80;99.90;;;;;;5049921;28;20204;-57
2022/12/28 02:59:06;;;;;;;2.23;1.20;;;7.80;99.90;;;;;;5074224;28;20201;-58
2022/12/28 03:01:56;;;;;;;1.70;1.03;;;7.80;99.90;;;;;;5072549;28;20240;-57
2022/12/28 03:04:32;;;;;;;1.53;0.93;;;7.70;99.90;;;;;;5072812;28;20209;-57
2022/12/28 03:09:55;;;;;;;1.73;1.10;;;7.70;99.90;;;;;;5072133;28;20199;-57
2022/12/28 03:12:27;;;;;;;1.93;1.17;;;7.70;99.90;;;;;;5072537;28;20229;-58
2022/12/28 03:14:57;;;;;;;2.03;1.10;;;7.60;99.90;;;;;;5072425;28;20209;-58
2022/12/28 03:31:29;;;;;;;1.37;1.00;;;7.70;99.90;;;;;;5071738;28;20739;-58
2022/12/28 03:34:05;;;;;;;2.10;1.10;;;7.80;99.90;;;;;;5072076;28;20204;-58
2022/12/28 03:36:42;;;;;;;1.47;0.90;;;7.90;99.90;;;;;;5071984;28;20215;-57
2022/12/28 03:39:16;;;;;;;2.13;1.03;;;8.00;99.90;;;;;;5071842;28;20204;-58
2022/12/28 03:41:47;;;;;;;2.13;1.17;;;8.00;99.90;;;;;;5071750;28;20236;-57
2022/12/28 03:44:20;;;;;;;1.50;1.10;;;7.90;99.90;;;;;;5071975;28;20258;-58
2022/12/28 03:46:52;;;;;;;2.17;1.10;;;8.00;99.90;;;;;;5071969;28;20205;-58
2022/12/28 03:49:22;;;;;;;1.30;1.00;;;8.00;99.90;;;;;;5071573;28;20224;-58
2022/12/28 03:51:48;;;;;;;1.30;0.80;;;8.00;99.90;;;;;;5071414;28;20225;-57
2022/12/28 03:54:17;;;;;;;1.60;0.90;;;8.00;99.90;;;;;;5072009;28;20613;-57
2022/12/28 03:56:47;;;;;;;2.40;1.10;;;8.00;99.90;;;;;;5071789;28;20216;-57
2022/12/28 03:59:14;;;;;;;1.70;1.00;;;8.00;99.90;;;;;;5071672;28;20205;-57
2022/12/28 04:01:41;;;;;;;3.40;1.40;;;7.90;99.90;;;;;;5071332;28;20240;-56
2022/12/28 04:04:08;;;;;;;1.47;1.00;;;7.90;99.90;;;;;;5071442;28;20209;-57
2022/12/28 04:06:36;;;;;;;2.47;1.40;;;7.90;99.90;;;;;;5071585;28;20204;-58
2022/12/28 04:09:03;;;;;;;1.43;0.90;;;8.00;99.90;;;;;;5071704;28;20229;-58
2022/12/28 04:11:30;;;;;;;1.90;1.20;;;8.00;99.90;;;;;;5071198;28;20236;-57
2022/12/28 04:13:57;;;;;;;1.73;1.10;;;8.00;99.90;;;;;;5071521;28;20213;-58
2022/12/28 04:16:23;;;;;;;2.00;0.90;;;8.00;99.90;;;;;;5071516;28;20216;-58
2022/12/28 04:18:50;;;;;;;4.40;0.90;;;8.00;99.90;;;;;;5071527;28;20205;-58
2022/12/28 04:21:17;;;;;;;2.23;0.97;;;8.00;99.90;;;;;;5074183;28;20720;-58
2022/12/28 04:23:45;;;;;;;1.63;1.10;;;8.00;99.90;;;;;;5075026;28;20209;-58
2022/12/28 04:26:14;;;;;;;1.20;0.87;;;8.00;99.90;;;;;;5075063;28;20211;-57
2022/12/28 04:28:41;;;;;;;1.40;1.17;;;8.10;99.90;;;;;;5074777;28;20217;-57
2022/12/28 04:31:11;;;;;;;2.07;1.00;;;8.10;99.90;;;;;;5074249;28;20205;-57
2022/12/28 04:33:38;;;;;;;2.60;1.20;;;8.00;99.90;;;;;;5075095;28;20201;-58
2022/12/28 04:36:06;;;;;;;1.67;0.87;;;7.90;99.90;;;;;;5075108;28;20212;-58
2022/12/28 04:38:33;;;;;;;1.87;0.97;;;8.00;99.90;;;;;;5075803;28;20205;-58
2022/12/28 04:41:02;;;;;;;2.40;1.00;;;8.00;99.90;;;;;;5074435;28;20217;-58
2022/12/28 04:43:29;;;;;;;2.73;1.37;;;8.00;99.90;;;;;;5074648;28;20205;-58
2022/12/28 04:45:56;;;;;;;1.30;1.10;;;8.10;99.90;;;;;;5074859;28;20208;-58
2022/12/28 04:48:23;;;;;;;2.17;0.90;;;8.10;99.90;;;;;;5074787;28;20252;-57
2022/12/28 04:50:50;;;;;;;3.67;1.07;;;8.10;99.90;;;;;;5074342;28;20282;-58
2022/12/28 04:53:17;;;;;;;1.93;1.00;;;8.10;99.90;;;;;;5074431;28;20231;-57
2022/12/28 04:55:43;;;;;;;3.10;1.00;;;8.10;99.90;;;;;;5074576;28;20211;-58
2022/12/28 04:58:11;;;;;;;2.47;1.03;;;8.10;99.90;;;;;;5074359;28;20685;-58
2022/12/28 05:00:38;;;;;;;1.00;0.80;;;8.10;99.90;;;;;;5074384;28;20205;-58
2022/12/28 05:03:05;;;;;;;2.93;0.90;;;8.20;99.90;;;;;;5074407;28;20241;-58
2022/12/28 05:05:33;;;;;;;2.30;1.40;;;8.10;99.90;;;;;;5074526;28;20201;-58
2022/12/28 05:08:01;;;;;;;1.83;1.20;;;8.20;99.90;;;;;;5074068;28;20212;-58
2022/12/28 05:10:28;;;;;;;4.43;1.20;;;8.20;99.90;;;;;;5073884;28;20227;-58
2022/12/28 05:12:55;;;;;;;1.77;1.00;;;8.20;99.90;;;;;;5073970;28;20244;-57
2022/12/28 05:15:23;;;;;;;1.53;1.00;;;8.20;99.90;;;;;;5074049;28;20649;-58
2022/12/28 05:17:50;;;;;;;2.43;1.30;;;8.30;99.90;;;;;;5074096;28;20212;-57
2022/12/28 05:20:19;;;;;;;2.50;1.00;;;8.30;99.90;;;;;;5073939;28;20201;-59
2022/12/28 05:22:46;;;;;;;1.93;1.10;;;8.30;99.90;;;;;;5073856;28;20232;-57
2022/12/28 05:25:12;;;;;;;2.57;1.17;;;8.30;99.90;;;;;;5073928;28;20220;-58
2022/12/28 05:27:39;;;;;;;2.63;1.00;;;8.20;99.90;;;;;;5073630;28;20532;-57
2022/12/28 05:30:07;;;;;;;2.40;1.13;;;8.10;99.90;;;;;;5073682;28;20232;-58
2022/12/28 05:32:35;;;;;;;2.33;1.20;;;8.20;99.90;;;;;;5073652;28;20240;-57
2022/12/28 05:35:02;;;;;;;1.83;0.90;;;8.20;99.90;;;;;;5073726;28;20326;-58
2022/12/28 05:37:29;;;;;;;2.07;1.20;;;8.20;99.90;;;;;;5074014;28;20208;-58
2022/12/28 05:39:55;;;;;;;1.90;1.20;;;8.20;99.90;;;;;;5073105;28;20201;-57
2022/12/28 05:42:22;;;;;;;1.97;1.00;;;8.20;99.90;;;;;;5073578;28;20225;-58
2022/12/28 05:44:49;;;;;;;2.47;1.00;;;8.20;99.90;;;;;;5073453;28;20200;-58
2022/12/28 05:47:15;;;;;;;0.97;0.80;;;8.20;99.90;;;;;;5073228;28;20216;-57
2022/12/28 05:49:43;;;;;;;2.10;1.40;;;8.20;99.90;;;;;;5072925;28;20232;-58
2022/12/28 05:52:10;;;;;;;2.07;0.80;;;8.30;99.90;;;;;;5073101;28;20247;-58
2022/12/28 05:54:37;;;;;;;1.90;0.80;;;8.30;99.90;;;;;;5073304;28;20193;-58
2022/12/28 05:57:04;;;;;;;2.10;1.00;;;8.40;99.90;;;;;;5073635;28;20499;-58
2022/12/28 05:59:30;;;;;;;2.43;1.07;;;8.40;99.90;;;;;;5073117;28;20197;-58
2022/12/28 06:01:57;;;;;;;2.33;1.27;;;8.40;99.90;;;;;;5072750;28;20228;-58
2022/12/28 06:04:24;;;;;;;3.57;1.13;;;8.40;99.90;;;;;;5073119;28;20214;-56
2022/12/28 06:06:53;;;;;;;1.97;1.17;;;8.40;99.90;;;;;;5073496;28;20258;-56
2022/12/28 06:09:20;;;;;;;2.80;1.23;;;8.40;99.90;;;;;;5072878;28;20708;-56
2022/12/28 06:11:47;;;;;;;1.60;0.90;;;8.40;99.90;;;;;;5072792;28;20224;-56
2022/12/28 06:14:14;;;;;;;3.43;1.00;;;8.40;99.90;;;;;;5072848;28;20204;-56
2022/12/28 06:16:42;;;;;;;2.43;1.10;;;8.30;99.90;;;;;;5072598;28;20205;-56
2022/12/28 06:19:11;;;;;;;2.37;1.30;;;8.30;99.90;;;;;;5072997;28;20244;-56
2022/12/28 06:21:39;;;;;;;2.37;1.20;;;8.30;99.90;;;;;;5072329;28;20224;-56
2022/12/28 06:24:08;;;;;;;2.93;1.10;;;8.30;99.90;;;;;;5072532;28;20699;-56
2022/12/28 06:26:37;;;;;;;2.47;1.30;;;8.40;99.90;;;;;;5072621;28;20211;-56
2022/12/28 06:29:05;;;;;;;1.63;1.13;;;8.40;99.90;;;;;;5072539;28;20221;-56
2022/12/28 06:31:33;;;;;;;2.57;1.07;;;8.40;99.90;;;;;;5072178;28;20241;-56
2022/12/28 06:34:02;;;;;;;1.80;0.90;;;8.40;99.90;;;;;;5072500;28;20205;-56
2022/12/28 06:36:31;;;;;;;2.10;0.90;;;8.40;99.90;;;;;;5072340;28;20208;-57
2022/12/28 06:38:59;;;;;;;2.10;0.90;;;8.40;99.90;;;;;;5072885;28;20201;-57
2022/12/28 06:41:27;;;;;;;2.73;1.10;;;8.50;99.90;;;;;;5072044;28;20753;-57
2022/12/28 06:43:55;;;;;;;1.77;1.17;;;8.60;99.90;;;;;;5072443;28;20201;-57
2022/12/28 06:46:24;;;;;;;3.37;1.03;;;8.60;99.90;;;;;;5072468;28;20211;-57
2022/12/28 06:48:51;;;;;;;4.53;1.23;;;8.60;99.90;;;;;;5072405;28;20229;-57
2022/12/28 06:51:21;;;;;;;1.60;1.00;;;8.70;99.90;;;;;;5072109;28;20225;-57
2022/12/28 06:53:48;;;;;;;2.23;1.00;;;8.70;99.90;;;;;;5072829;28;20208;-57
2022/12/28 06:56:17;;;;;;;2.40;1.10;;;8.60;99.90;;;;;;5072508;28;20208;-57
2022/12/28 06:58:46;;;;;;;1.83;1.37;;;8.50;99.90;;;;;;5072216;28;20205;-57
2022/12/28 07:01:16;;;;;;;4.67;2.77;;;8.60;99.90;;;;;;5071864;28;21501;-57
2022/12/28 07:03:44;;;;;;;2.17;1.20;;;8.60;99.90;;;;;;5072142;28;20599;-57
2022/12/28 07:06:12;;;;;;;3.60;1.47;;;8.50;99.90;;;;;;5072347;28;20211;-57
2022/12/28 07:08:39;;;;;;;5.43;1.40;;;8.60;99.90;;;;;;5071831;28;20208;-57
2022/12/28 07:11:07;;;;;;;4.23;1.63;;;8.60;99.90;;;;;;5071937;28;20224;-57
2022/12/28 07:13:34;;;;;;;1.93;1.03;;;8.70;99.90;;;;;;5071951;28;20211;-56
2022/12/28 07:16:04;;;;;;;3.10;1.20;;;8.70;99.90;;;;;;5072073;28;20209;-57
2022/12/28 07:18:31;;;;;;;2.20;1.10;;;8.70;99.90;;;;;;5072079;28;20205;-57
2022/12/28 07:21:02;;;;;;;2.47;0.90;;;8.70;99.90;;;;;;5071561;28;20216;-57
2022/12/28 07:23:30;;;;;;;1.43;1.00;;;8.70;99.90;;;;;;5071822;28;20209;-57
2022/12/28 07:25:57;;;;;;;2.93;1.20;;;8.80;99.90;;;;;;5071738;28;20561;-57
2022/12/28 07:28:24;;;;;;;2.50;1.40;;;8.80;99.90;;;;;;5071742;28;20300;-57
2022/12/28 07:30:51;;;;;;;4.13;1.20;;;8.80;99.90;;;;;;5071940;28;20236;-57
2022/12/28 07:33:19;;;;;;;2.97;1.43;;;8.90;99.90;;;;;;5072647;28;20224;-57
2022/12/28 07:35:46;;;;;;;3.80;1.27;;;8.90;99.90;;;;;;5071734;28;20711;-57
2022/12/28 07:38:12;;;;;;;4.10;1.00;;;8.90;99.90;;;;;;5071791;28;20270;-58
2022/12/28 07:40:39;;;;;;;2.73;1.17;;;8.90;99.90;;;;;;5071386;28;20212;-56
2022/12/28 07:43:06;;;;;;;1.70;1.10;;;9.10;99.90;;;;;;5071851;28;20240;-57
2022/12/28 07:45:33;;;;;;;1.73;0.80;;;9.10;99.90;;;;;;5071772;28;20216;-58
2022/12/28 07:47:59;;;;;;;2.93;0.90;;;9.10;99.90;;;;;;5071883;28;20216;-57
2022/12/28 07:50:27;;;;;;;1.57;0.83;;;9.20;99.90;;;;;;5071442;28;20232;-57
2022/12/28 07:52:54;;;;;;;2.20;0.70;;;9.20;99.90;;;;;;5071631;28;20221;-57
2022/12/28 07:55:21;;;;;;;1.33;0.87;;;9.20;99.90;;;;;;5073570;28;20208;-59
2022/12/28 07:57:47;;;;;;;5.83;3.13;;;9.30;99.90;;;;;;5075721;28;20216;-55
2022/12/28 08:00:15;;;;;;;2.20;1.13;;;9.40;99.90;;;;;;5075145;28;20665;-55
2022/12/28 08:02:41;;;;;;;1.73;1.13;;;9.50;99.90;;;;;;5075397;28;20232;-55
2022/12/28 08:05:09;;;;;;;1.57;1.00;;;9.60;99.90;;;;;;5075333;28;20208;-55
2022/12/28 08:07:37;;;;;;;1.60;1.10;;;9.70;99.90;;;;;;5075442;28;20207;-57
2022/12/28 08:10:04;;;;;;;1.37;1.10;;;9.70;99.90;;;;;;5075532;28;20228;-56
2022/12/28 08:12:31;;;;;;;1.30;0.90;;;9.80;99.90;;;;;;5075183;28;20224;-55
2022/12/28 08:15:00;;;;;;;2.00;1.50;;;9.80;99.90;;;;;;5075615;28;20212;-55
2022/12/28 08:17:26;;;;;;;4.30;2.50;;;9.90;99.90;;;;;;5075156;28;20304;-55
2022/12/28 08:19:54;;;;;;;3.67;2.27;;;9.90;99.90;;;;;;5075058;28;20208;-57
2022/12/28 08:22:21;;;;;;;2.60;1.60;;;10.00;99.90;;;;;;5074822;28;20646;-55
2022/12/28 08:24:49;;;;;;;1.70;1.00;;;10.00;99.90;;;;;;5075096;28;20209;-55
2022/12/28 08:27:16;;;;;;;1.83;0.90;;;10.00;99.90;;;;;;5074943;28;20213;-56
2022/12/28 08:29:43;;;;;;;5.17;1.20;;;10.00;99.90;;;;;;5074795;28;20247;-55
2022/12/28 08:32:09;;;;;;;2.43;1.13;;;10.00;99.90;;;;;;5074445;28;20236;-57
2022/12/28 08:34:36;;;;;;;20.80;15.10;;;10.10;99.90;;;;;;5074759;28;20211;-55
2022/12/28 08:37:03;;;;;;;3.03;1.03;;;10.10;99.90;;;;;;5074845;28;20212;-55
2022/12/28 08:39:29;;;;;;;2.17;1.20;;;10.10;99.90;;;;;;5075008;28;20208;-55
2022/12/28 08:41:57;;;;;;;1.73;0.97;;;10.10;99.90;;;;;;5074576;28;20228;-56
2022/12/28 08:44:24;;;;;;;2.33;0.97;;;10.10;99.90;;;;;;5075060;28;20205;-55
2022/12/28 08:46:51;;;;;;;7.10;3.87;;;10.10;99.90;;;;;;5074598;28;20209;-56
2022/12/28 08:49:18;;;;;;;3.50;1.97;;;10.10;99.90;;;;;;5074364;28;20232;-56
2022/12/28 08:51:44;;;;;;;2.00;0.80;;;10.10;99.90;;;;;;5074583;28;20236;-57
2022/12/28 08:54:13;;;;;;;1.77;1.07;;;10.20;99.90;;;;;;5074426;28;20581;-55
2022/12/28 08:56:42;;;;;;;1.53;1.30;;;10.30;99.90;;;;;;5074402;28;20209;-56
2022/12/28 08:59:13;;;;;;;5.37;2.30;;;10.30;99.90;;;;;;5074546;28;20731;-55
2022/12/28 09:01:40;;;;;;;10.53;6.77;;;10.40;99.90;;;;;;5074589;28;20312;-56
2022/12/28 09:04:11;;;;;;;4.50;2.93;;;10.40;99.90;;;;;;5074206;28;20213;-55
2022/12/28 09:06:39;;;;;;;5.77;2.17;;;10.50;99.90;;;;;;5073901;28;20205;-55
2022/12/28 09:09:08;;;;;;;4.03;1.60;;;10.70;99.90;;;;;;5074381;28;20205;-55
2022/12/28 09:11:35;;;;;;;3.47;1.10;;;10.80;99.90;;;;;;5073775;28;20239;-55
2022/12/28 09:14:03;;;;;;;2.33;1.00;;;10.90;99.90;;;;;;5074189;28;20209;-55
2022/12/28 09:16:31;;;;;;;2.03;1.03;;;10.90;99.90;;;;;;5073832;28;20208;-55
2022/12/28 09:18:59;;;;;;;2.03;1.20;;;11.00;99.90;;;;;;5074250;28;20208;-55
2022/12/28 09:21:28;;;;;;;2.33;1.20;;;11.00;99.90;;;;;;5073848;28;20251;-55
2022/12/28 09:23:55;;;;;;;1.70;1.00;;;10.90;99.90;;;;;;5074102;28;20208;-55
2022/12/28 09:26:24;;;;;;;6.77;4.63;;;11.00;99.90;;;;;;5074007;28;20207;-55
2022/12/28 09:28:52;;;;;;;2.63;1.20;;;11.10;99.90;;;;;;5073978;28;20201;-55
2022/12/28 09:31:21;;;;;;;2.17;0.90;;;11.10;99.90;;;;;;5073445;28;20735;-55
2022/12/28 09:34:01;;;;;;;1.47;1.20;;;11.20;99.90;;;;;;5074047;28;20213;-56
2022/12/28 09:36:29;;;;;;;2.27;0.90;;;11.30;99.90;;;;;;5074068;28;20585;-55
2022/12/28 09:38:57;;;;;;;4.00;1.07;;;11.20;99.90;;;;;;5073856;28;20205;-55
2022/12/28 09:41:28;;;;;;;1.80;0.70;;;11.30;99.90;;;;;;5073501;28;20217;-56
2022/12/28 09:44:08;;;;;;;2.33;1.03;;;11.30;99.90;;;;;;5074111;28;20211;-56
2022/12/28 09:46:38;;;;;;;1.50;1.00;;;11.40;99.90;;;;;;5074365;28;20208;-57
2022/12/28 09:49:11;;;;;;;2.50;1.03;;;11.50;99.90;;;;;;5074165;28;20561;-57
2022/12/28 09:51:46;;;;;;;2.30;1.40;;;11.60;99.90;;;;;;5074029;28;20229;-57
2022/12/28 09:54:13;;;;;;;1.63;1.00;;;11.50;99.90;;;;;;5074358;28;20216;-57
2022/12/28 09:56:42;;;;;;;2.23;0.90;;;11.50;99.90;;;;;;5074477;28;20236;-57
2022/12/28 09:59:16;;;;;;;2.07;1.10;;;11.50;99.90;;;;;;5074454;28;20212;-57
2022/12/28 10:01:45;;;;;;;3.83;1.17;;;11.60;99.90;;;;;;5074268;28;20220;-57
2022/12/28 10:04:13;;;;;;;1.80;0.80;;;11.70;99.90;;;;;;5075040;28;20211;-57
2022/12/28 10:06:40;;;;;;;1.83;1.20;;;11.70;99.90;;;;;;5075395;28;20204;-57
2022/12/28 10:09:19;;;;;;;2.87;0.97;;;11.70;99.90;;;;;;5074317;28;20214;-57
2022/12/28 10:11:46;;;;;;;2.83;1.00;;;11.80;99.90;;;;;;5073580;28;20229;-58
2022/12/28 10:14:19;;;;;;;3.10;0.90;;;11.90;99.90;;;;;;5073895;28;20205;-57
2022/12/28 10:16:47;;;;;;;1.60;0.70;;;11.90;99.90;;;;;;5073484;28;20274;-57
2022/12/28 10:19:18;;;;;;;1.90;1.00;;;12.00;99.90;;;;;;5074063;28;20212;-58
2022/12/28 10:21:46;;;;;;;2.30;0.67;;;12.00;99.90;;;;;;5073708;28;20243;-57
2022/12/28 10:24:14;;;;;;;1.40;0.80;;;12.10;99.90;;;;;;5073767;28;20204;-57
2022/12/28 10:26:44;;;;;;;8.37;3.43;;;12.10;99.90;;;;;;5073095;28;20215;-57
2022/12/28 10:29:16;;;;;;;3.37;1.37;;;12.10;99.90;;;;;;5073115;28;20216;-57
2022/12/28 10:31:43;;;;;;;2.50;1.17;;;12.00;99.90;;;;;;5074476;28;20607;-55
2022/12/28 10:34:14;;;;;;;1.20;0.90;;;12.00;99.90;;;;;;5073911;28;20208;-58
2022/12/28 10:36:43;;;;;;;2.63;1.30;;;12.10;99.90;;;;;;5074069;28;20208;-58
2022/12/28 10:39:16;;;;;;;6.23;4.03;;;12.20;99.90;;;;;;5073683;28;20215;-58
2022/12/28 10:41:44;;;;;;;1.50;1.10;;;12.40;99.90;;;;;;5073312;28;20224;-58
2022/12/28 10:44:21;;;;;;;3.30;1.10;;;12.70;99.90;;;;;;5073674;28;20205;-58
2022/12/28 10:46:54;;;;;;;1.17;0.87;;;12.80;99.90;;;;;;5073194;28;20227;-57
2022/12/28 10:49:21;;;;;;;1.27;0.70;;;12.70;99.90;;;;;;5073376;28;20205;-57
2022/12/28 10:52:01;;;;;;;1.70;0.67;;;12.60;99.90;;;;;;5073145;28;20224;-57
2022/12/28 10:54:33;;;;;;;1.53;0.90;;;12.60;99.90;;;;;;5073157;28;20212;-57
2022/12/28 10:57:00;;;;;;;2.57;1.03;;;12.40;99.90;;;;;;5072817;28;20241;-57
2022/12/28 10:59:28;;;;;;;1.43;0.93;;;12.30;99.90;;;;;;5072957;28;20205;-57
2022/12/28 11:02:12;;;;;;;1.63;1.37;;;12.20;99.90;;;;;;5073177;28;20235;-57
2022/12/28 11:04:52;;;;;;;1.83;0.90;;;12.00;99.90;;;;;;5072497;28;20207;-57
2022/12/28 11:07:28;;;;;;;1.33;1.00;;;12.00;99.90;;;;;;5072952;28;20208;-57
2022/12/28 11:10:13;;;;;;;1.13;0.87;;;12.00;99.90;;;;;;5073041;28;20208;-57
2022/12/28 11:12:43;;;;;;;1.13;0.90;;;12.10;99.90;;;;;;5073232;28;20232;-57
2022/12/28 11:15:14;;;;;;;2.10;1.27;;;12.30;99.90;;;;;;5070488;28;20449;-56
2022/12/28 11:17:41;;;;;;;1.93;1.17;;;12.40;99.90;;;;;;5072649;28;20201;-59
2022/12/28 11:20:16;;;;;;;3.67;1.20;;;12.60;99.90;;;;;;5073593;28;20413;-64
2022/12/28 11:22:45;;;;;;;2.60;1.00;;;12.70;99.90;;;;;;5074443;28;20252;-63
2022/12/28 11:25:15;;;;;;;3.27;1.00;;;12.80;99.90;;;;;;5072873;28;20214;-60
2022/12/28 11:27:43;;;;;;;2.43;1.10;;;12.80;99.90;;;;;;5074136;28;20249;-62
2022/12/28 11:30:15;;;;;;;1.93;1.00;;;12.80;99.90;;;;;;5075342;28;20216;-61
2022/12/28 11:32:48;;;;;;;3.77;0.87;;;12.80;99.90;;;;;;5075408;28;20225;-59
2022/12/28 11:35:18;;;;;;;2.73;1.10;;;12.80;99.90;;;;;;5074489;28;20203;-60
2022/12/28 11:37:55;;;;;;;1.20;0.90;;;12.80;99.90;;;;;;5074634;28;20239;-60
2022/12/28 11:40:55;;;;;;;5.10;2.30;;;12.80;99.90;;;;;;5074982;28;20204;-61
2022/12/28 11:43:39;;;;;;;1.43;1.03;;;12.80;99.90;;;;;;5075186;28;20212;-61
2022/12/28 11:46:06;;;;;;;1.80;1.03;;;12.70;99.90;;;;;;5074919;28;20266;-60
2022/12/28 11:48:47;;;;;;;1.83;1.20;;;12.60;99.90;;;;;;5074950;28;20201;-61
2022/12/28 11:51:16;;;;;;;1.67;1.33;;;12.50;99.90;;;;;;5075076;28;20235;-59
2022/12/28 11:53:53;;;;;;;1.50;1.03;;;12.40;99.90;;;;;;5075595;28;20700;-61
2022/12/28 11:56:20;;;;;;;1.70;1.17;;;12.30;99.90;;;;;;5074937;28;20691;-60
2022/12/28 11:59:02;;;;;;;4.00;1.20;;;12.10;99.90;;;;;;5076128;28;20657;-59
2022/12/28 12:01:46;;;;;;;3.93;1.10;;;12.00;99.90;;;;;;5075716;28;20382;-60
2022/12/28 12:04:20;;;;;;;3.23;1.53;;;12.00;99.90;;;;;;5076760;28;20584;-62
2022/12/28 12:07:15;;;;;;;2.50;1.40;;;11.90;99.90;;;;;;5075573;28;20209;-62
2022/12/28 12:09:45;;;;;;;5.00;1.40;;;12.00;99.90;;;;;;5075312;28;20241;-60
2022/12/28 12:12:35;;;;;;;3.03;1.33;;;12.10;99.90;;;;;;5075172;28;20658;-58
2022/12/28 12:15:09;;;;;;;2.87;1.40;;;12.20;99.90;;;;;;5075045;28;20204;-58
2022/12/28 12:17:42;;;;;;;3.07;1.20;;;12.20;99.90;;;;;;5076729;28;20209;-59
2022/12/28 12:20:21;;;;;;;1.87;1.37;;;12.20;99.90;;;;;;5077188;28;20711;-61
2022/12/28 12:22:51;;;;;;;2.53;1.27;;;12.30;99.90;;;;;;5077872;28;20278;-59
2022/12/28 12:25:24;;;;;;;3.20;1.40;;;12.30;99.90;;;;;;5077242;28;20278;-58
2022/12/28 12:27:56;;;;;;;1.90;1.30;;;12.30;99.90;;;;;;5076647;28;20209;-58
2022/12/28 12:30:24;;;;;;;2.60;1.50;;;12.40;99.90;;;;;;5075546;28;20201;-57
2022/12/28 12:32:55;;;;;;;2.00;1.30;;;12.40;99.90;;;;;;5076072;28;20228;-59
2022/12/28 12:35:23;;;;;;;4.27;1.70;;;12.40;99.90;;;;;;5075614;28;20208;-58
2022/12/28 12:37:55;;;;;;;1.93;1.30;;;12.50;99.90;;;;;;5075322;28;20600;-60
2022/12/28 12:40:59;;;;;;;3.30;1.07;;;12.40;99.90;;;;;;5074548;28;20637;-57
2022/12/28 12:43:35;;;;;;;2.17;1.23;;;12.30;99.90;;;;;;5076681;28;20209;-58
2022/12/28 12:46:34;;;;;;;5.93;3.17;;;12.30;99.90;;;;;;5076212;28;20216;-58
2022/12/28 12:49:18;;;;;;;1.83;1.10;;;12.20;99.90;;;;;;5076031;28;20205;-57
2022/12/28 12:51:50;;;;;;;2.00;1.17;;;12.20;99.90;;;;;;5075645;28;20228;-58
2022/12/28 12:54:29;;;;;;;3.17;2.33;;;12.10;99.90;;;;;;5076340;28;20203;-58
2022/12/28 12:57:03;;;;;;;1.93;1.50;;;12.20;99.90;;;;;;5076119;28;20337;-58
2022/12/28 12:59:44;;;;;;;2.55;1.40;;;12.20;99.90;;;;;;5070515;28;20706;-58
2022/12/28 13:02:33;;;;;;;2.07;1.40;;;12.40;99.90;;;;;;5074392;28;20221;-58
2022/12/28 13:05:03;;;;;;;2.77;1.43;;;12.40;99.90;;;;;;5074854;28;20201;-58
2022/12/28 13:07:30;;;;;;;1.83;1.00;;;12.40;99.90;;;;;;5074526;28;20217;-57
2022/12/28 13:10:00;;;;;;;2.03;1.20;;;12.50;99.90;;;;;;5074931;28;20693;-59
2022/12/28 13:12:28;;;;;;;2.60;1.40;;;12.50;99.90;;;;;;5074827;28;20286;-63
2022/12/28 13:14:59;;;;;;;3.30;1.40;;;12.50;99.90;;;;;;5074735;28;20201;-61
2022/12/28 13:17:27;;;;;;;3.13;1.30;;;12.50;99.90;;;;;;5075033;28;20212;-63
2022/12/28 13:20:09;;;;;;;1.97;1.20;;;12.60;99.90;;;;;;5074413;28;20208;-58
2022/12/28 13:22:36;;;;;;;2.50;1.10;;;12.50;99.90;;;;;;5073423;28;20259;-58
2022/12/28 13:25:03;;;;;;;1.40;0.90;;;12.50;99.90;;;;;;5073749;28;20212;-59
2022/12/28 13:27:34;;;;;;;1.47;1.00;;;12.40;99.90;;;;;;5073529;28;20209;-58
2022/12/28 13:30:02;;;;;;;3.07;1.00;;;12.30;99.90;;;;;;5074382;28;20205;-61